Amherst, NH

4:40 PM EST on February 28, 2015 (GMT -0500)
APRSWXNET Amherst NH US | Change Station
CLOSE
Current Station
Personal Weather Station
Location: Mont Vernon, NH
Elevation: 482 ft
Nearby Weather Stations

Elev 482 ft 42.87 °N, 71.65 °W | Updated 36 minutes ago

Clear
Clear
31 °F
Feels Like 31 °F
N
2
Wind Variable Wind from West
Gusts 7.0 mph

Today
High -- | Low -- °F
--% Chance of Precip.
Yesterday
High -- | Low -- °F
Precip. -- in
6:24 AM 5:34 PM
Waxing Gibbous, 80% visible
Pressure 28.51 in
Visibility 10.0 miles
Clouds Clear
Windchill 31 °F
Dew Point -1 °F
Humidity 25%
Rainfall 0.00 in
Snow Depth Not available.
UV 1 out of 12
Pollen .30 out of 12
Air Quality Not available.
Flu Activity Not available.
METAR KASH 282051Z VRB06KT 10SM CLR M01/M19 A3066 RMK AO2 56012 T10051188 SLP653 $

More Conditions Fewer Conditions

Pressure 28.51 in
Visibility 10.0 miles
Clouds Clear
Windchill 31 °F
Dew Point -1 °F
Humidity 25%
Rainfall 0.00 in
Snow Depth Not available.
UV 1 out of 12
Pollen .30 out of 12
Air Quality Not available.
Flu Activity Not available.
METAR KASH 282051Z VRB06KT 10SM CLR M01/M19 A3066 RMK AO2 56012 T10051188 SLP653 $

More Conditions Fewer Conditions

10-Day Weather Forecast

Almanac

Astronomy

Feb. 28, 2015 Rise Set
Actual Time
Civil Twilight
Nautical Twilight
Astronomical Twilight
Moon
Length of Visible Light
Length of Day
Tomorrow will be .
, % of the Moon is Illuminated

Today's Extremes

State Highs State Lows

Community

WunderPhotos

Upload Photos

1,801,160 photos uploaded!

WunderBlogs® & News

Nearby

Air Quality

  Air Quality AQ Index Pollutant
Not available.

Snow Depth

Station Depth Elevation

Earthquake Activity

City Distance Mag. Time & Date
Minimum magnitude displayed is 2.5.

Coastal Water Temperatures

Place Temperature

Nearby Weather Stations